sensor_id;sensor_type;location;lat;lon;timestamp;P1;durP1;ratioP1;P2;durP2;ratioP2
11283;SDS011;5698;47.332;11.180;2023-11-21T00:02:26;7.73;;;7.03;;
11283;SDS011;5698;47.332;11.180;2023-11-21T00:04:53;7.83;;;6.63;;
11283;SDS011;5698;47.332;11.180;2023-11-21T00:07:21;5.07;;;4.67;;
11283;SDS011;5698;47.332;11.180;2023-11-21T00:09:48;5.47;;;4.97;;
11283;SDS011;5698;47.332;11.180;2023-11-21T00:12:16;5.97;;;4.90;;
11283;SDS011;5698;47.332;11.180;2023-11-21T00:14:43;5.80;;;5.23;;
11283;SDS011;5698;47.332;11.180;2023-11-21T00:17:10;5.03;;;4.63;;
11283;SDS011;5698;47.332;11.180;2023-11-21T00:19:37;5.57;;;5.07;;
11283;SDS011;5698;47.332;11.180;2023-11-21T00:22:04;5.20;;;4.80;;
11283;SDS011;5698;47.332;11.180;2023-11-21T00:24:32;6.43;;;5.83;;
11283;SDS011;5698;47.332;11.180;2023-11-21T00:26:59;5.90;;;5.40;;
11283;SDS011;5698;47.332;11.180;2023-11-21T00:29:26;4.97;;;4.57;;
11283;SDS011;5698;47.332;11.180;2023-11-21T00:31:54;5.50;;;4.90;;
11283;SDS011;5698;47.332;11.180;2023-11-21T00:34:21;4.63;;;4.23;;
11283;SDS011;5698;47.332;11.180;2023-11-21T00:36:48;4.53;;;4.13;;
11283;SDS011;5698;47.332;11.180;2023-11-21T00:39:15;5.37;;;4.60;;
11283;SDS011;5698;47.332;11.180;2023-11-21T00:41:43;6.43;;;5.90;;
11283;SDS011;5698;47.332;11.180;2023-11-21T00:44:10;6.07;;;5.47;;
11283;SDS011;5698;47.332;11.180;2023-11-21T00:46:37;6.57;;;5.53;;
11283;SDS011;5698;47.332;11.180;2023-11-21T00:49:04;5.93;;;5.43;;
11283;SDS011;5698;47.332;11.180;2023-11-21T00:51:30;5.53;;;4.97;;
11283;SDS011;5698;47.332;11.180;2023-11-21T00:53:57;5.67;;;5.17;;
11283;SDS011;5698;47.332;11.180;2023-11-21T00:56:24;5.30;;;4.90;;
11283;SDS011;5698;47.332;11.180;2023-11-21T00:58:53;5.30;;;4.80;;
11283;SDS011;5698;47.332;11.180;2023-11-21T01:01:20;4.90;;;4.43;;
11283;SDS011;5698;47.332;11.180;2023-11-21T01:03:48;4.67;;;4.27;;
11283;SDS011;5698;47.332;11.180;2023-11-21T01:06:15;4.43;;;4.03;;
11283;SDS011;5698;47.332;11.180;2023-11-21T01:08:43;4.70;;;4.30;;
11283;SDS011;5698;47.332;11.180;2023-11-21T01:11:10;4.87;;;4.43;;
11283;SDS011;5698;47.332;11.180;2023-11-21T01:13:38;4.83;;;4.43;;
11283;SDS011;5698;47.332;11.180;2023-11-21T01:16:07;4.57;;;4.17;;
11283;SDS011;5698;47.332;11.180;2023-11-21T01:18:34;4.40;;;4.00;;
11283;SDS011;5698;47.332;11.180;2023-11-21T01:21:01;5.10;;;4.30;;
11283;SDS011;5698;47.332;11.180;2023-11-21T01:23:29;4.90;;;4.10;;
11283;SDS011;5698;47.332;11.180;2023-11-21T01:25:56;4.07;;;3.77;;
11283;SDS011;5698;47.332;11.180;2023-11-21T01:28:24;5.17;;;4.77;;
11283;SDS011;5698;47.332;11.180;2023-11-21T01:30:51;5.53;;;5.03;;
11283;SDS011;5698;47.332;11.180;2023-11-21T01:33:22;5.70;;;5.20;;
11283;SDS011;5698;47.332;11.180;2023-11-21T01:35:50;5.17;;;4.67;;
11283;SDS011;5698;47.332;11.180;2023-11-21T01:38:20;4.67;;;4.27;;
11283;SDS011;5698;47.332;11.180;2023-11-21T01:40:47;5.00;;;4.60;;
11283;SDS011;5698;47.332;11.180;2023-11-21T01:43:14;4.63;;;4.23;;
11283;SDS011;5698;47.332;11.180;2023-11-21T01:45:41;4.03;;;3.73;;
11283;SDS011;5698;47.332;11.180;2023-11-21T01:48:10;5.03;;;3.90;;
11283;SDS011;5698;47.332;11.180;2023-11-21T01:50:39;6.40;;;5.10;;
11283;SDS011;5698;47.332;11.180;2023-11-21T01:53:06;5.80;;;5.30;;
11283;SDS011;5698;47.332;11.180;2023-11-21T01:55:33;5.47;;;4.97;;
11283;SDS011;5698;47.332;11.180;2023-11-21T01:58:00;4.40;;;4.10;;
11283;SDS011;5698;47.332;11.180;2023-11-21T02:00:27;4.67;;;4.27;;
11283;SDS011;5698;47.332;11.180;2023-11-21T02:02:54;4.90;;;4.50;;
11283;SDS011;5698;47.332;11.180;2023-11-21T02:05:21;4.90;;;4.50;;
11283;SDS011;5698;47.332;11.180;2023-11-21T02:07:50;5.00;;;4.50;;
11283;SDS011;5698;47.332;11.180;2023-11-21T02:10:17;4.50;;;4.10;;
11283;SDS011;5698;47.332;11.180;2023-11-21T02:12:48;4.50;;;4.20;;
11283;SDS011;5698;47.332;11.180;2023-11-21T02:15:16;4.77;;;4.37;;
11283;SDS011;5698;47.332;11.180;2023-11-21T02:17:45;4.80;;;4.07;;
11283;SDS011;5698;47.332;11.180;2023-11-21T02:20:16;4.40;;;4.00;;
11283;SDS011;5698;47.332;11.180;2023-11-21T02:22:43;4.50;;;4.10;;
11283;SDS011;5698;47.332;11.180;2023-11-21T02:25:18;4.53;;;4.13;;
11283;SDS011;5698;47.332;11.180;2023-11-21T02:27:45;4.70;;;4.20;;
11283;SDS011;5698;47.332;11.180;2023-11-21T02:30:13;4.40;;;4.00;;
11283;SDS011;5698;47.332;11.180;2023-11-21T02:32:41;5.10;;;4.33;;
11283;SDS011;5698;47.332;11.180;2023-11-21T02:35:09;6.60;;;4.10;;
11283;SDS011;5698;47.332;11.180;2023-11-21T02:37:37;4.63;;;4.23;;
11283;SDS011;5698;47.332;11.180;2023-11-21T02:40:08;5.00;;;4.57;;
11283;SDS011;5698;47.332;11.180;2023-11-21T02:42:37;5.20;;;4.70;;
11283;SDS011;5698;47.332;11.180;2023-11-21T02:45:05;6.33;;;5.73;;
11283;SDS011;5698;47.332;11.180;2023-11-21T02:47:33;6.17;;;5.57;;
11283;SDS011;5698;47.332;11.180;2023-11-21T02:50:00;6.00;;;5.50;;
11283;SDS011;5698;47.332;11.180;2023-11-21T02:52:27;5.77;;;5.03;;
11283;SDS011;5698;47.332;11.180;2023-11-21T02:54:53;4.87;;;4.47;;
11283;SDS011;5698;47.332;11.180;2023-11-21T02:57:22;5.30;;;4.80;;
11283;SDS011;5698;47.332;11.180;2023-11-21T02:59:49;5.60;;;5.10;;
11283;SDS011;5698;47.332;11.180;2023-11-21T03:02:16;7.80;;;7.00;;
11283;SDS011;5698;47.332;11.180;2023-11-21T03:04:43;6.63;;;6.03;;
11283;SDS011;5698;47.332;11.180;2023-11-21T03:07:10;6.60;;;6.00;;
11283;SDS011;5698;47.332;11.180;2023-11-21T03:09:37;6.20;;;5.70;;
11283;SDS011;5698;47.332;11.180;2023-11-21T03:12:04;5.50;;;5.00;;
11283;SDS011;5698;47.332;11.180;2023-11-21T03:14:33;4.90;;;4.40;;
11283;SDS011;5698;47.332;11.180;2023-11-21T03:17:00;5.73;;;5.23;;
11283;SDS011;5698;47.332;11.180;2023-11-21T03:19:27;6.80;;;6.10;;
11283;SDS011;5698;47.332;11.180;2023-11-21T03:21:54;6.80;;;6.13;;
11283;SDS011;5698;47.332;11.180;2023-11-21T03:24:21;7.47;;;6.77;;
11283;SDS011;5698;47.332;11.180;2023-11-21T03:26:48;7.43;;;6.73;;
11283;SDS011;5698;47.332;11.180;2023-11-21T03:29:16;6.90;;;6.30;;
11283;SDS011;5698;47.332;11.180;2023-11-21T03:31:44;6.27;;;5.70;;
11283;SDS011;5698;47.332;11.180;2023-11-21T03:34:15;6.80;;;5.47;;
11283;SDS011;5698;47.332;11.180;2023-11-21T03:36:43;6.57;;;5.63;;
11283;SDS011;5698;47.332;11.180;2023-11-21T03:39:11;6.73;;;6.03;;
11283;SDS011;5698;47.332;11.180;2023-11-21T03:41:38;7.40;;;6.67;;
11283;SDS011;5698;47.332;11.180;2023-11-21T03:44:05;6.13;;;5.53;;
11283;SDS011;5698;47.332;11.180;2023-11-21T03:46:32;6.30;;;5.70;;
11283;SDS011;5698;47.332;11.180;2023-11-21T03:49:00;6.10;;;5.50;;
11283;SDS011;5698;47.332;11.180;2023-11-21T03:51:27;5.67;;;5.17;;
11283;SDS011;5698;47.332;11.180;2023-11-21T03:53:54;5.70;;;5.20;;
11283;SDS011;5698;47.332;11.180;2023-11-21T03:56:21;5.80;;;5.30;;
11283;SDS011;5698;47.332;11.180;2023-11-21T03:58:48;6.40;;;5.80;;
11283;SDS011;5698;47.332;11.180;2023-11-21T04:01:19;6.13;;;5.53;;
11283;SDS011;5698;47.332;11.180;2023-11-21T04:03:48;6.10;;;5.60;;
11283;SDS011;5698;47.332;11.180;2023-11-21T04:06:17;7.03;;;6.33;;
11283;SDS011;5698;47.332;11.180;2023-11-21T04:08:44;6.73;;;6.10;;
11283;SDS011;5698;47.332;11.180;2023-11-21T04:11:11;7.70;;;6.77;;
11283;SDS011;5698;47.332;11.180;2023-11-21T04:13:38;7.20;;;6.50;;
11283;SDS011;5698;47.332;11.180;2023-11-21T04:16:05;7.13;;;6.37;;
11283;SDS011;5698;47.332;11.180;2023-11-21T04:18:33;6.77;;;6.17;;
11283;SDS011;5698;47.332;11.180;2023-11-21T04:21:00;7.53;;;6.83;;
11283;SDS011;5698;47.332;11.180;2023-11-21T04:23:29;8.57;;;7.27;;
11283;SDS011;5698;47.332;11.180;2023-11-21T04:25:57;8.20;;;7.40;;
11283;SDS011;5698;47.332;11.180;2023-11-21T04:28:24;8.73;;;7.87;;
11283;SDS011;5698;47.332;11.180;2023-11-21T04:30:51;8.40;;;7.47;;
11283;SDS011;5698;47.332;11.180;2023-11-21T04:33:18;8.20;;;6.27;;
11283;SDS011;5698;47.332;11.180;2023-11-21T04:35:45;7.00;;;6.30;;
11283;SDS011;5698;47.332;11.180;2023-11-21T04:38:12;7.37;;;6.73;;
11283;SDS011;5698;47.332;11.180;2023-11-21T04:40:40;9.67;;;7.47;;
11283;SDS011;5698;47.332;11.180;2023-11-21T04:43:07;8.53;;;7.73;;
11283;SDS011;5698;47.332;11.180;2023-11-21T04:45:34;7.90;;;7.10;;
11283;SDS011;5698;47.332;11.180;2023-11-21T04:48:01;7.33;;;6.63;;
11283;SDS011;5698;47.332;11.180;2023-11-21T04:50:29;7.10;;;6.50;;
11283;SDS011;5698;47.332;11.180;2023-11-21T04:52:56;6.90;;;6.20;;
11283;SDS011;5698;47.332;11.180;2023-11-21T04:55:23;6.93;;;6.23;;
11283;SDS011;5698;47.332;11.180;2023-11-21T04:57:54;7.63;;;6.43;;
11283;SDS011;5698;47.332;11.180;2023-11-21T05:00:21;7.87;;;6.57;;
11283;SDS011;5698;47.332;11.180;2023-11-21T05:02:48;7.13;;;6.53;;
11283;SDS011;5698;47.332;11.180;2023-11-21T05:05:15;8.00;;;7.30;;
11283;SDS011;5698;47.332;11.180;2023-11-21T05:07:42;9.10;;;8.17;;
11283;SDS011;5698;47.332;11.180;2023-11-21T05:10:09;9.20;;;8.07;;
11283;SDS011;5698;47.332;11.180;2023-11-21T05:12:39;7.60;;;6.83;;
11283;SDS011;5698;47.332;11.180;2023-11-21T05:15:09;7.60;;;6.80;;
11283;SDS011;5698;47.332;11.180;2023-11-21T05:17:39;7.13;;;6.43;;
11283;SDS011;5698;47.332;11.180;2023-11-21T05:20:08;7.27;;;6.57;;
11283;SDS011;5698;47.332;11.180;2023-11-21T05:22:36;6.43;;;5.83;;
11283;SDS011;5698;47.332;11.180;2023-11-21T05:25:04;6.87;;;6.20;;
11283;SDS011;5698;47.332;11.180;2023-11-21T05:27:32;8.90;;;8.00;;
11283;SDS011;5698;47.332;11.180;2023-11-21T05:30:00;9.00;;;8.10;;
11283;SDS011;5698;47.332;11.180;2023-11-21T05:32:29;8.20;;;7.27;;
11283;SDS011;5698;47.332;11.180;2023-11-21T05:34:56;8.83;;;7.57;;
11283;SDS011;5698;47.332;11.180;2023-11-21T05:37:23;8.23;;;7.33;;
11283;SDS011;5698;47.332;11.180;2023-11-21T05:39:52;9.63;;;7.80;;
11283;SDS011;5698;47.332;11.180;2023-11-21T05:42:21;9.17;;;8.33;;
11283;SDS011;5698;47.332;11.180;2023-11-21T05:44:48;9.07;;;8.17;;
11283;SDS011;5698;47.332;11.180;2023-11-21T05:47:15;8.53;;;7.47;;
11283;SDS011;5698;47.332;11.180;2023-11-21T05:49:44;7.13;;;6.43;;
11283;SDS011;5698;47.332;11.180;2023-11-21T05:52:11;7.17;;;6.47;;
11283;SDS011;5698;47.332;11.180;2023-11-21T05:54:38;7.83;;;7.03;;
11283;SDS011;5698;47.332;11.180;2023-11-21T05:57:05;7.97;;;7.23;;
11283;SDS011;5698;47.332;11.180;2023-11-21T05:59:32;7.90;;;7.10;;
11283;SDS011;5698;47.332;11.180;2023-11-21T06:01:59;8.27;;;6.53;;
11283;SDS011;5698;47.332;11.180;2023-11-21T06:04:27;8.43;;;7.00;;
11283;SDS011;5698;47.332;11.180;2023-11-21T06:06:55;6.60;;;5.93;;
11283;SDS011;5698;47.332;11.180;2023-11-21T06:09:22;7.57;;;6.77;;
11283;SDS011;5698;47.332;11.180;2023-11-21T06:11:50;7.20;;;6.50;;
11283;SDS011;5698;47.332;11.180;2023-11-21T06:14:17;7.67;;;6.97;;
11283;SDS011;5698;47.332;11.180;2023-11-21T06:16:44;7.30;;;6.60;;
11283;SDS011;5698;47.332;11.180;2023-11-21T06:19:11;8.43;;;7.63;;
11283;SDS011;5698;47.332;11.180;2023-11-21T06:21:38;7.07;;;6.43;;
11283;SDS011;5698;47.332;11.180;2023-11-21T06:24:07;8.20;;;7.40;;
11283;SDS011;5698;47.332;11.180;2023-11-21T06:26:34;8.67;;;6.90;;
11283;SDS011;5698;47.332;11.180;2023-11-21T06:29:01;9.53;;;7.53;;
11283;SDS011;5698;47.332;11.180;2023-11-21T06:31:29;8.33;;;7.53;;
11283;SDS011;5698;47.332;11.180;2023-11-21T06:33:57;7.80;;;7.03;;
11283;SDS011;5698;47.332;11.180;2023-11-21T06:36:25;6.97;;;6.30;;
11283;SDS011;5698;47.332;11.180;2023-11-21T06:38:52;6.97;;;6.27;;
11283;SDS011;5698;47.332;11.180;2023-11-21T06:41:21;6.57;;;5.87;;
11283;SDS011;5698;47.332;11.180;2023-11-21T06:43:48;6.30;;;5.70;;
11283;SDS011;5698;47.332;11.180;2023-11-21T06:46:15;6.47;;;5.87;;
11283;SDS011;5698;47.332;11.180;2023-11-21T06:48:44;6.50;;;5.90;;
11283;SDS011;5698;47.332;11.180;2023-11-21T06:51:11;6.13;;;5.63;;
11283;SDS011;5698;47.332;11.180;2023-11-21T06:53:38;6.60;;;6.00;;
11283;SDS011;5698;47.332;11.180;2023-11-21T06:56:05;7.83;;;6.73;;
11283;SDS011;5698;47.332;11.180;2023-11-21T06:58:43;7.63;;;6.87;;
11283;SDS011;5698;47.332;11.180;2023-11-21T07:01:11;7.97;;;7.20;;
11283;SDS011;5698;47.332;11.180;2023-11-21T07:03:38;7.07;;;6.47;;
11283;SDS011;5698;47.332;11.180;2023-11-21T07:06:06;6.70;;;6.10;;
11283;SDS011;5698;47.332;11.180;2023-11-21T07:08:33;6.10;;;5.50;;
11283;SDS011;5698;47.332;11.180;2023-11-21T07:11:00;5.83;;;5.13;;
11283;SDS011;5698;47.332;11.180;2023-11-21T07:13:28;5.80;;;5.30;;
11283;SDS011;5698;47.332;11.180;2023-11-21T07:15:57;5.67;;;5.17;;
11283;SDS011;5698;47.332;11.180;2023-11-21T07:18:25;5.90;;;5.30;;
11283;SDS011;5698;47.332;11.180;2023-11-21T07:20:52;5.47;;;4.97;;
11283;SDS011;5698;47.332;11.180;2023-11-21T07:23:19;5.13;;;4.63;;
11283;SDS011;5698;47.332;11.180;2023-11-21T07:25:47;5.13;;;4.63;;
11283;SDS011;5698;47.332;11.180;2023-11-21T07:28:14;5.33;;;4.87;;
11283;SDS011;5698;47.332;11.180;2023-11-21T07:30:41;5.50;;;5.00;;
11283;SDS011;5698;47.332;11.180;2023-11-21T07:33:10;5.37;;;4.87;;
11283;SDS011;5698;47.332;11.180;2023-11-21T07:35:37;5.70;;;5.10;;
11283;SDS011;5698;47.332;11.180;2023-11-21T07:38:04;7.03;;;6.23;;
11283;SDS011;5698;47.332;11.180;2023-11-21T07:40:31;6.77;;;6.07;;
11283;SDS011;5698;47.332;11.180;2023-11-21T07:42:58;6.20;;;5.60;;
11283;SDS011;5698;47.332;11.180;2023-11-21T07:45:25;5.97;;;5.43;;
11283;SDS011;5698;47.332;11.180;2023-11-21T07:47:53;5.70;;;5.10;;
11283;SDS011;5698;47.332;11.180;2023-11-21T07:50:22;5.73;;;5.13;;
11283;SDS011;5698;47.332;11.180;2023-11-21T07:52:49;6.10;;;5.50;;
11283;SDS011;5698;47.332;11.180;2023-11-21T07:55:16;6.27;;;5.67;;
11283;SDS011;5698;47.332;11.180;2023-11-21T07:57:43;6.30;;;5.30;;
11283;SDS011;5698;47.332;11.180;2023-11-21T08:00:10;7.07;;;6.37;;
11283;SDS011;5698;47.332;11.180;2023-11-21T08:02:40;7.47;;;6.77;;
11283;SDS011;5698;47.332;11.180;2023-11-21T08:05:10;7.00;;;6.30;;
11283;SDS011;5698;47.332;11.180;2023-11-21T08:07:39;6.60;;;5.87;;
11283;SDS011;5698;47.332;11.180;2023-11-21T08:10:06;6.83;;;6.13;;
11283;SDS011;5698;47.332;11.180;2023-11-21T08:12:35;6.07;;;5.47;;
11283;SDS011;5698;47.332;11.180;2023-11-21T08:15:04;5.97;;;5.37;;
11283;SDS011;5698;47.332;11.180;2023-11-21T08:17:31;6.80;;;6.00;;
11283;SDS011;5698;47.332;11.180;2023-11-21T08:19:58;7.33;;;6.63;;
11283;SDS011;5698;47.332;11.180;2023-11-21T08:22:25;6.40;;;5.83;;
11283;SDS011;5698;47.332;11.180;2023-11-21T08:24:54;7.13;;;6.47;;
11283;SDS011;5698;47.332;11.180;2023-11-21T08:27:21;6.77;;;6.17;;
11283;SDS011;5698;47.332;11.180;2023-11-21T08:29:47;8.33;;;7.53;;
11283;SDS011;5698;47.332;11.180;2023-11-21T08:32:15;8.43;;;7.60;;
11283;SDS011;5698;47.332;11.180;2023-11-21T08:34:42;7.17;;;6.47;;
11283;SDS011;5698;47.332;11.180;2023-11-21T08:37:10;6.57;;;5.90;;
11283;SDS011;5698;47.332;11.180;2023-11-21T08:39:37;6.37;;;5.77;;
11283;SDS011;5698;47.332;11.180;2023-11-21T08:42:05;6.47;;;5.87;;
11283;SDS011;5698;47.332;11.180;2023-11-21T08:44:33;7.03;;;5.90;;
11283;SDS011;5698;47.332;11.180;2023-11-21T08:47:00;5.67;;;5.17;;
11283;SDS011;5698;47.332;11.180;2023-11-21T08:49:27;5.63;;;5.13;;
11283;SDS011;5698;47.332;11.180;2023-11-21T08:51:55;6.40;;;5.10;;
11283;SDS011;5698;47.332;11.180;2023-11-21T08:54:24;5.77;;;5.27;;
11283;SDS011;5698;47.332;11.180;2023-11-21T08:56:51;5.40;;;4.87;;
11283;SDS011;5698;47.332;11.180;2023-11-21T08:59:19;5.77;;;5.27;;
11283;SDS011;5698;47.332;11.180;2023-11-21T09:01:46;6.70;;;5.83;;
11283;SDS011;5698;47.332;11.180;2023-11-21T09:04:13;6.30;;;5.70;;
11283;SDS011;5698;47.332;11.180;2023-11-21T09:06:39;6.20;;;5.60;;
11283;SDS011;5698;47.332;11.180;2023-11-21T09:09:06;6.33;;;5.70;;
11283;SDS011;5698;47.332;11.180;2023-11-21T09:11:35;5.73;;;5.23;;
11283;SDS011;5698;47.332;11.180;2023-11-21T09:14:02;6.50;;;5.77;;
11283;SDS011;5698;47.332;11.180;2023-11-21T09:16:30;7.30;;;6.10;;
11283;SDS011;5698;47.332;11.180;2023-11-21T09:18:58;6.97;;;6.37;;
11283;SDS011;5698;47.332;11.180;2023-11-21T09:21:25;7.33;;;6.63;;
11283;SDS011;5698;47.332;11.180;2023-11-21T09:23:52;6.80;;;6.10;;
11283;SDS011;5698;47.332;11.180;2023-11-21T09:26:19;5.10;;;4.60;;
11283;SDS011;5698;47.332;11.180;2023-11-21T09:28:46;5.23;;;4.70;;
11283;SDS011;5698;47.332;11.180;2023-11-21T09:31:13;4.30;;;3.90;;
11283;SDS011;5698;47.332;11.180;2023-11-21T09:33:43;4.07;;;3.67;;
11283;SDS011;5698;47.332;11.180;2023-11-21T09:36:11;4.57;;;4.17;;
11283;SDS011;5698;47.332;11.180;2023-11-21T09:38:39;4.13;;;3.73;;
11283;SDS011;5698;47.332;11.180;2023-11-21T09:41:09;4.40;;;3.53;;
11283;SDS011;5698;47.332;11.180;2023-11-21T09:43:42;3.47;;;3.17;;
11283;SDS011;5698;47.332;11.180;2023-11-21T09:46:12;3.50;;;3.20;;
11283;SDS011;5698;47.332;11.180;2023-11-21T09:48:46;4.97;;;3.73;;
11283;SDS011;5698;47.332;11.180;2023-11-21T09:51:16;3.30;;;3.00;;
11283;SDS011;5698;47.332;11.180;2023-11-21T09:53:46;3.23;;;2.93;;
11283;SDS011;5698;47.332;11.180;2023-11-21T09:56:17;3.23;;;2.93;;
11283;SDS011;5698;47.332;11.180;2023-11-21T09:58:50;2.70;;;2.50;;
11283;SDS011;5698;47.332;11.180;2023-11-21T10:01:18;2.50;;;2.30;;
11283;SDS011;5698;47.332;11.180;2023-11-21T10:03:48;3.53;;;3.23;;
11283;SDS011;5698;47.332;11.180;2023-11-21T10:06:15;3.43;;;3.13;;
11283;SDS011;5698;47.332;11.180;2023-11-21T10:08:44;3.77;;;3.47;;
11283;SDS011;5698;47.332;11.180;2023-11-21T10:11:11;4.10;;;2.53;;
11283;SDS011;5698;47.332;11.180;2023-11-21T10:13:40;2.60;;;2.00;;
11283;SDS011;5698;47.332;11.180;2023-11-21T10:16:11;4.77;;;2.73;;
11283;SDS011;5698;47.332;11.180;2023-11-21T10:18:42;4.23;;;2.90;;
11283;SDS011;5698;47.332;11.180;2023-11-21T10:21:12;2.37;;;2.20;;
11283;SDS011;5698;47.332;11.180;2023-11-21T10:23:39;3.23;;;2.43;;
11283;SDS011;5698;47.332;11.180;2023-11-21T10:26:08;3.90;;;2.37;;
11283;SDS011;5698;47.332;11.180;2023-11-21T10:28:41;2.40;;;2.20;;
11283;SDS011;5698;47.332;11.180;2023-11-21T10:31:08;2.43;;;2.23;;
11283;SDS011;5698;47.332;11.180;2023-11-21T10:33:35;2.10;;;1.90;;
11283;SDS011;5698;47.332;11.180;2023-11-21T10:36:02;2.30;;;2.10;;
11283;SDS011;5698;47.332;11.180;2023-11-21T10:38:35;1.80;;;1.70;;
11283;SDS011;5698;47.332;11.180;2023-11-21T10:41:11;2.30;;;1.83;;
11283;SDS011;5698;47.332;11.180;2023-11-21T10:43:40;1.33;;;1.20;;
11283;SDS011;5698;47.332;11.180;2023-11-21T10:46:07;1.40;;;1.30;;
11283;SDS011;5698;47.332;11.180;2023-11-21T10:48:35;1.57;;;1.40;;
11283;SDS011;5698;47.332;11.180;2023-11-21T10:51:06;2.10;;;1.60;;
11283;SDS011;5698;47.332;11.180;2023-11-21T10:53:38;1.97;;;1.73;;
11283;SDS011;5698;47.332;11.180;2023-11-21T10:56:08;1.67;;;1.57;;
11283;SDS011;5698;47.332;11.180;2023-11-21T10:58:42;1.57;;;1.47;;
11283;SDS011;5698;47.332;11.180;2023-11-21T11:01:09;2.83;;;1.30;;
11283;SDS011;5698;47.332;11.180;2023-11-21T11:03:39;1.20;;;1.07;;
11283;SDS011;5698;47.332;11.180;2023-11-21T11:06:07;1.33;;;1.10;;
11283;SDS011;5698;47.332;11.180;2023-11-21T11:08:36;1.57;;;1.47;;
11283;SDS011;5698;47.332;11.180;2023-11-21T11:11:05;1.37;;;1.27;;
11283;SDS011;5698;47.332;11.180;2023-11-21T11:13:32;1.60;;;1.50;;
11283;SDS011;5698;47.332;11.180;2023-11-21T11:16:00;1.10;;;1.00;;
11283;SDS011;5698;47.332;11.180;2023-11-21T11:18:28;1.20;;;1.10;;
11283;SDS011;5698;47.332;11.180;2023-11-21T11:20:57;1.97;;;1.30;;
11283;SDS011;5698;47.332;11.180;2023-11-21T11:23:37;1.30;;;1.20;;
11283;SDS011;5698;47.332;11.180;2023-11-21T11:26:20;2.13;;;1.50;;
11283;SDS011;5698;47.332;11.180;2023-11-21T11:28:56;3.23;;;1.37;;
11283;SDS011;5698;47.332;11.180;2023-11-21T11:31:33;1.10;;;1.00;;
11283;SDS011;5698;47.332;11.180;2023-11-21T11:34:08;1.83;;;1.20;;
11283;SDS011;5698;47.332;11.180;2023-11-21T11:36:47;1.67;;;1.40;;
11283;SDS011;5698;47.332;11.180;2023-11-21T11:39:28;1.70;;;1.37;;
11283;SDS011;5698;47.332;11.180;2023-11-21T11:41:56;1.47;;;1.37;;
11283;SDS011;5698;47.332;11.180;2023-11-21T11:47:24;0.83;;;0.70;;
11283;SDS011;5698;47.332;11.180;2023-11-21T11:50:05;1.37;;;1.07;;
11283;SDS011;5698;47.332;11.180;2023-11-21T11:52:38;1.53;;;0.93;;
11283;SDS011;5698;47.332;11.180;2023-11-21T11:55:09;0.70;;;0.70;;
11283;SDS011;5698;47.332;11.180;2023-11-21T11:57:37;1.20;;;0.80;;
11283;SDS011;5698;47.332;11.180;2023-11-21T12:03:02;1.90;;;1.70;;
11283;SDS011;5698;47.332;11.180;2023-11-21T12:05:31;2.87;;;1.87;;
11283;SDS011;5698;47.332;11.180;2023-11-21T12:07:58;1.43;;;1.33;;
11283;SDS011;5698;47.332;11.180;2023-11-21T12:10:29;1.27;;;0.80;;
11283;SDS011;5698;47.332;11.180;2023-11-21T12:12:57;1.27;;;1.17;;
11283;SDS011;5698;47.332;11.180;2023-11-21T12:15:26;1.10;;;1.00;;
11283;SDS011;5698;47.332;11.180;2023-11-21T12:17:56;0.80;;;0.80;;
11283;SDS011;5698;47.332;11.180;2023-11-21T12:20:24;2.00;;;1.20;;
11283;SDS011;5698;47.332;11.180;2023-11-21T12:22:52;0.90;;;0.90;;
11283;SDS011;5698;47.332;11.180;2023-11-21T12:25:21;1.23;;;1.00;;
11283;SDS011;5698;47.332;11.180;2023-11-21T12:27:50;1.23;;;0.70;;
11283;SDS011;5698;47.332;11.180;2023-11-21T12:30:19;1.03;;;0.80;;
11283;SDS011;5698;47.332;11.180;2023-11-21T12:32:48;1.07;;;0.70;;
11283;SDS011;5698;47.332;11.180;2023-11-21T12:35:16;2.20;;;1.00;;
11283;SDS011;5698;47.332;11.180;2023-11-21T12:37:44;1.37;;;1.03;;
11283;SDS011;5698;47.332;11.180;2023-11-21T12:40:12;0.80;;;0.80;;
11283;SDS011;5698;47.332;11.180;2023-11-21T12:42:40;1.90;;;0.93;;
11283;SDS011;5698;47.332;11.180;2023-11-21T12:45:12;0.90;;;0.90;;
11283;SDS011;5698;47.332;11.180;2023-11-21T12:47:46;0.70;;;0.70;;
11283;SDS011;5698;47.332;11.180;2023-11-21T12:50:14;0.90;;;0.90;;
11283;SDS011;5698;47.332;11.180;2023-11-21T12:52:41;1.07;;;0.63;;
11283;SDS011;5698;47.332;11.180;2023-11-21T12:55:13;0.60;;;0.60;;
11283;SDS011;5698;47.332;11.180;2023-11-21T12:57:42;0.83;;;0.80;;
11283;SDS011;5698;47.332;11.180;2023-11-21T13:00:11;0.70;;;0.70;;
11283;SDS011;5698;47.332;11.180;2023-11-21T13:02:52;0.80;;;0.70;;
11283;SDS011;5698;47.332;11.180;2023-11-21T13:05:28;0.50;;;0.50;;
11283;SDS011;5698;47.332;11.180;2023-11-21T13:07:56;0.70;;;0.70;;
11283;SDS011;5698;47.332;11.180;2023-11-21T13:10:25;0.73;;;0.70;;
11283;SDS011;5698;47.332;11.180;2023-11-21T13:12:56;0.80;;;0.80;;
11283;SDS011;5698;47.332;11.180;2023-11-21T13:15:26;0.73;;;0.70;;
11283;SDS011;5698;47.332;11.180;2023-11-21T13:17:56;0.67;;;0.67;;
11283;SDS011;5698;47.332;11.180;2023-11-21T13:20:23;0.57;;;0.57;;
11283;SDS011;5698;47.332;11.180;2023-11-21T13:22:52;0.67;;;0.63;;
11283;SDS011;5698;47.332;11.180;2023-11-21T13:25:22;0.70;;;0.70;;
11283;SDS011;5698;47.332;11.180;2023-11-21T13:27:52;0.53;;;0.53;;
11283;SDS011;5698;47.332;11.180;2023-11-21T13:30:19;1.27;;;0.60;;
11283;SDS011;5698;47.332;11.180;2023-11-21T13:32:52;0.73;;;0.73;;
11283;SDS011;5698;47.332;11.180;2023-11-21T13:35:22;1.20;;;1.10;;
11283;SDS011;5698;47.332;11.180;2023-11-21T13:37:56;1.37;;;1.00;;
11283;SDS011;5698;47.332;11.180;2023-11-21T13:40:25;1.07;;;0.90;;
11283;SDS011;5698;47.332;11.180;2023-11-21T13:42:53;0.70;;;0.70;;
11283;SDS011;5698;47.332;11.180;2023-11-21T13:45:22;1.07;;;0.97;;
11283;SDS011;5698;47.332;11.180;2023-11-21T13:47:51;0.90;;;0.70;;
11283;SDS011;5698;47.332;11.180;2023-11-21T13:50:23;0.60;;;0.60;;
11283;SDS011;5698;47.332;11.180;2023-11-21T13:52:54;0.60;;;0.40;;
11283;SDS011;5698;47.332;11.180;2023-11-21T13:55:21;0.77;;;0.60;;
11283;SDS011;5698;47.332;11.180;2023-11-21T13:57:50;0.50;;;0.50;;
11283;SDS011;5698;47.332;11.180;2023-11-21T14:00:18;0.50;;;0.50;;
11283;SDS011;5698;47.332;11.180;2023-11-21T14:03:10;0.60;;;0.60;;
11283;SDS011;5698;47.332;11.180;2023-11-21T14:05:45;0.57;;;0.57;;
11283;SDS011;5698;47.332;11.180;2023-11-21T14:08:16;0.60;;;0.60;;
11283;SDS011;5698;47.332;11.180;2023-11-21T14:10:46;1.00;;;0.90;;
11283;SDS011;5698;47.332;11.180;2023-11-21T14:13:16;0.50;;;0.50;;
11283;SDS011;5698;47.332;11.180;2023-11-21T14:15:44;0.60;;;0.60;;
11283;SDS011;5698;47.332;11.180;2023-11-21T14:18:17;0.50;;;0.50;;
11283;SDS011;5698;47.332;11.180;2023-11-21T14:20:52;1.17;;;0.57;;
11283;SDS011;5698;47.332;11.180;2023-11-21T14:23:19;1.70;;;1.43;;
11283;SDS011;5698;47.332;11.180;2023-11-21T14:25:48;0.60;;;0.60;;
11283;SDS011;5698;47.332;11.180;2023-11-21T14:28:16;0.60;;;0.50;;
11283;SDS011;5698;47.332;11.180;2023-11-21T14:30:44;0.80;;;0.80;;
11283;SDS011;5698;47.332;11.180;2023-11-21T14:33:11;0.50;;;0.50;;
11283;SDS011;5698;47.332;11.180;2023-11-21T14:35:39;1.13;;;0.50;;
11283;SDS011;5698;47.332;11.180;2023-11-21T14:38:06;0.50;;;0.50;;
11283;SDS011;5698;47.332;11.180;2023-11-21T14:40:35;0.40;;;0.40;;
11283;SDS011;5698;47.332;11.180;2023-11-21T14:43:02;0.60;;;0.50;;
11283;SDS011;5698;47.332;11.180;2023-11-21T14:45:30;0.70;;;0.60;;
11283;SDS011;5698;47.332;11.180;2023-11-21T14:47:57;0.73;;;0.67;;
11283;SDS011;5698;47.332;11.180;2023-11-21T14:50:31;0.50;;;0.50;;
11283;SDS011;5698;47.332;11.180;2023-11-21T14:53:32;0.50;;;0.50;;
11283;SDS011;5698;47.332;11.180;2023-11-21T14:56:18;1.20;;;0.80;;
11283;SDS011;5698;47.332;11.180;2023-11-21T14:58:51;0.60;;;0.60;;
11283;SDS011;5698;47.332;11.180;2023-11-21T15:01:19;0.50;;;0.50;;
11283;SDS011;5698;47.332;11.180;2023-11-21T15:03:55;0.40;;;0.40;;